• Join FlightAware (Why Join?)
  • Login
  • US Flag 
10:14PM EST


 

Airport Tracker/Info


-or-


 

Live Flight TrackerFlight Track Log ✈ FIN5 ✈ 22-Oct-2013 ✈ EFHK / HEL - KJFK

Flight Track Log - Related Links

Times and Time Zones

All times are in EDT time to prevent confusion due to time zone crossing. See the FIN5 flight status page for this flight to view local times or setup timezone preferences in your user account.

Time Position Orientation Groundspeed Altitude Reporting Facility
EDT Latitude Longitude Course Direction KTS MPH feet Rate Location/Type
07:21AM 60.3170 24.9140 337° Northwest  Level FlightAware
07:21AM 60.3050 24.8840 231° Southwest 160 184 1,100 2,294 Climbing FlightAware
07:22AM 60.3010 24.8730 234° Southwest 171 197 1,300 1,385 Climbing FlightAware
07:22AM 60.3000 24.8650 256° West 183 211 1,400 600 Climbing FlightAware
07:22AM 60.3000 24.8580 270° West 187 215 1,400 414 Level FlightAware
07:22AM 60.3050 24.8150 283° West 218 251 1,600 766 Climbing FlightAware
07:23AM 60.3160 24.7670 295° West 242 278 2,000 1,000 Climbing FlightAware
07:23AM 60.3160 24.7550 270° West 247 284 2,100 1,615 Climbing FlightAware
07:23AM 60.3140 24.7130 265° West 254 292 2,700 2,400 Climbing FlightAware
07:23AM 60.3100 24.6600 261° West 253 291 3,700 3,000 Climbing FlightAware
07:24AM 60.3070 24.6260 260° West 248 285 4,500 2,780 Climbing FlightAware
07:24AM 60.3010 24.5660 259° West 253 291 5,600 2,449 Climbing FlightAware
07:24AM 60.2960 24.5090 260° West 260 299 6,500 2,308 Climbing FlightAware
07:25AM 60.2930 24.4740 260° West 259 298 7,100 2,500 Climbing FlightAware
07:25AM 60.2880 24.4250 258° West 256 295 8,000 2,400 Climbing FlightAware
07:25AM 60.2840 24.3780 260° West 262 302 8,700 2,308 Climbing FlightAware
07:26AM 60.2800 24.3300 260° West 259 298 9,500 1,882 Climbing FlightAware
07:26AM 60.2730 24.2580 259° West 274 315 10,300 1,183 Climbing FlightAware
07:27AM 60.2640 24.1490 261° West 313 360 10,900 868 Climbing FlightAware
07:27AM 60.2540 24.0370 260° West 346 398 11,400 1,333 Climbing FlightAware
07:28AM 60.2420 23.9190 258° West 359 413 12,500 2,000 Climbing FlightAware
07:29AM 60.2300 23.7950 259° West 365 420 13,800 1,853 Climbing FlightAware
07:29AM 60.2200 23.6920 259° West 375 432 14,600 1,727 Climbing FlightAware
07:30AM 60.2080 23.5760 258° West 381 438 15,700 2,000 Climbing FlightAware
07:30AM 60.1950 23.4450 259° West 381 438 17,000 1,946 Climbing FlightAware
07:31AM 60.1820 23.3180 258° West 386 444 18,100 1,853 Climbing FlightAware
07:31AM 60.1710 23.2040 259° West 389 448 19,100 1,853 Climbing FlightAware
07:32AM 60.1570 23.0750 258° West 389 448 20,200 1,676 Climbing FlightAware
07:33AM 60.1460 22.9680 258° West 392 451 21,000 1,412 Climbing FlightAware
07:33AM 60.1330 22.8330 259° West 398 458 21,800 1,541 Climbing FlightAware
07:34AM 60.1410 22.6970 277° West 384 442 22,900 1,644 Climbing FlightAware
07:34AM 60.1550 22.5760 283° West 387 445 23,800 1,371 Climbing FlightAware
07:35AM 60.1650 22.4560 280° West 391 450 24,500 1,029 Climbing FlightAware
07:36AM 60.1770 22.3260 281° West 399 459 25,000 1,029 Climbing FlightAware
07:36AM 60.1890 22.2000 281° West 398 458 25,700 1,343 Climbing FlightAware
07:37AM 60.2000 22.0800 281° West 397 457 26,500 1,147 Climbing FlightAware
07:37AM 60.2120 21.9520 281° West 400 460 27,000 917 Climbing FlightAware
07:38AM 60.2240 21.8180 280° West 402 463 27,600 845 Climbing FlightAware
07:38AM 60.2360 21.6880 281° West 407 468 28,000 676 Climbing FlightAware
07:39AM 60.2480 21.5550 280° West 414 476 28,400 618 Climbing FlightAware
07:40AM 60.2590 21.4310 280° West 417 480 28,700 618 Climbing FlightAware
07:40AM 60.2710 21.2950 280° West 421 484 29,100 761 Climbing FlightAware
07:41AM 60.2820 21.1590 279° West 420 483 29,600 931 Climbing FlightAware
07:41AM 60.2899 21.0727 280° West 416 479 30,000 343 Climbing FlightAware ADS-B
07:42AM 60.3050 20.8910 280° West 412 474 30,000  Level FlightAware
07:42AM 60.3138 20.7860 280° West 410 472 30,000  Level FlightAware ADS-B
07:43AM 60.3270 20.6230 279° West 409 471 30,000  Level FlightAware
07:44AM 60.3380 20.4920 280° West 410 472 30,000  Level FlightAware
07:44AM 60.3444 20.4087 279° West 410 472 30,000  Level FlightAware ADS-B
07:45AM 60.3590 20.2280 279° West 413 475 30,000  Level FlightAware
07:45AM 60.3600 20.2108 277° West 411 473 30,000  Level FlightAware ADS-B
07:46AM 60.3690 20.0910 279° West 413 475 30,000  Level FlightAware
07:46AM 60.3740 20.0298 279° West 414 476 30,000  Level FlightAware ADS-B
07:46AM 60.3857 19.8761 279° West 414 476 30,000  Level FlightAware ADS-B
07:47AM 60.3951 19.7506 279° West 414 476 30,000  Level FlightAware ADS-B
07:47AM 60.4037 19.6338 279° West 414 476 30,000  Level FlightAware ADS-B
07:48AM 60.4121 19.5176 278° West 414 476 30,000  Level FlightAware ADS-B
07:49AM 60.4214 19.3902 278° West 414 476 30,000  Level FlightAware ADS-B
07:49AM 60.4347 19.2015 278° West 414 476 30,000  Level FlightAware ADS-B
07:50AM 60.4446 19.0596 278° West 415 478 30,000  Level FlightAware ADS-B
07:51AM 60.4535 18.9295 278° West 417 480 30,000  Level FlightAware ADS-B
07:51AM 60.4626 18.7935 278° West 417 480 30,000  Level FlightAware ADS-B
07:52AM 60.4707 18.6714 278° West 418 481 30,000  Level FlightAware ADS-B
07:52AM 60.4806 18.5197 278° West 419 482 30,000  Level FlightAware ADS-B
07:53AM 60.4907 18.3627 278° West 422 486 30,000  Level FlightAware ADS-B
07:53AM 60.4981 18.2453 277° West 421 484 30,000  Level FlightAware ADS-B
07:54AM 60.5055 18.1254 277° West 420 483 30,000  Level FlightAware ADS-B
07:55AM 60.5148 17.9739 277° West 420 483 30,000  Level FlightAware ADS-B
07:55AM 60.5242 17.8183 277° West 420 483 30,000  Level FlightAware ADS-B
07:56AM 60.5312 17.6984 277° West 421 484 30,000  Level FlightAware ADS-B
07:56AM 60.5381 17.5787 277° West 423 487 30,000  Level FlightAware ADS-B
07:57AM 60.5448 17.4612 277° West 423 487 30,000  Level FlightAware ADS-B
07:57AM 60.5517 17.3396 277° West 423 487 30,000  Level FlightAware ADS-B
07:58AM 60.5602 17.1842 276° West 424 488 30,000  Level FlightAware ADS-B
07:59AM 60.5683 17.0344 276° West 424 488 30,000  Level FlightAware ADS-B
07:59AM 60.5770 16.8701 276° West 424 488 30,000  Level FlightAware ADS-B
08:00AM 60.5831 16.7504 276° West 424 488 30,000  Level FlightAware ADS-B
08:00AM 60.5897 16.6200 276° West 425 489 30,000  Level FlightAware ADS-B
08:01AM 60.5985 16.4427 276° West 426 490 30,000  Level FlightAware ADS-B
08:02AM 60.6080 16.2470 276° West 428 493 30,000  Level FlightAware
08:02AM 60.6130 16.1290 275° West 428 493 30,000  Level FlightAware
08:03AM 60.6210 15.9730 276° West 428 493 30,000  Level FlightAware
08:04AM 60.6270 15.8360 275° West 428 493 30,000  Level FlightAware
08:04AM 60.6330 15.6910 275° West 427 491 30,000  Level FlightAware
08:05AM 60.6390 15.5480 275° West 427 491 30,000  Level FlightAware
08:05AM 60.6440 15.4220 275° West 428 493 30,000  Level FlightAware
08:06AM 60.6500 15.3590 281° West 428 493 30,000  Level FlightAware
08:06AM 60.6750 15.2230 291° West 428 493 30,000  Level FlightAware
08:07AM 60.6970 15.1020 290° West 427 491 30,000  Level FlightAware
08:07AM 60.7210 14.9700 290° West 425 489 30,000  Level FlightAware
08:08AM 60.7440 14.8400 290° West 425 489 30,000  Level FlightAware
08:09AM 60.7670 14.7090 290° West 426 490 30,000  Level FlightAware
08:09AM 60.7910 14.5720 290° West 427 491 30,000  Level FlightAware
08:10AM 60.8100 14.4610 289° West 425 489 30,000  Level FlightAware
08:10AM 60.8370 14.3090 290° West 424 488 30,000  Level FlightAware
08:11AM 60.8440 14.2640 288° West 424 488 30,000  Level FlightAware
08:12AM 60.8920 13.9870 290° West 422 486 30,000  Level FlightAware
08:12AM 60.9140 13.8590 290° West 424 488 30,000  Level FlightAware
08:13AM 60.9340 13.7340 288° West 426 490 30,000  Level FlightAware
08:13AM 60.9580 13.5940 290° West 429 494 30,000  Level FlightAware
08:14AM 60.9800 13.4600 289° West 430 495 30,000  Level FlightAware
08:15AM 61.0040 13.3170 289° West 431 496 30,000  Level FlightAware
08:15AM 61.0240 13.1900 288° West 432 497 30,000  Level FlightAware
08:16AM 61.0470 13.0470 288° West 431 496 30,000  Level FlightAware
08:16AM 61.0680 12.9210 289° West 432 497 30,000  Level FlightAware
08:17AM 61.0900 12.7820 288° West 433 498 30,000  Level FlightAware
08:18AM 61.1140 12.6290 288° West 434 499 30,000  Level FlightAware
08:18AM 61.1320 12.5110 288° West 435 501 30,000  Level FlightAware
08:19AM 61.1550 12.3650 288° West 433 498 30,000  Level FlightAware
08:19AM 61.1770 12.2220 288° West 432 497 30,000  Level FlightAware
08:20AM 61.1970 12.0910 288° West 431 496 30,000  Level FlightAware
08:20AM 61.2190 11.9460 288° West 429 494 30,000  Level FlightAware
08:21AM 61.2390 11.8140 288° West 429 494 30,000  Level FlightAware
08:22AM 61.2590 11.6770 287° West 430 495 30,000  Level FlightAware
08:22AM 61.2820 11.5250 288° West 430 495 30,000  Level FlightAware
08:23AM 61.3000 11.4010 287° West 431 496 30,000  Level FlightAware
08:23AM 61.3210 11.2580 287° West 431 496 30,000  Level FlightAware
08:24AM 61.3400 11.1270 287° West 432 497 30,000  Level FlightAware
08:25AM 61.3610 10.9800 287° West 431 496 30,000  Level FlightAware
08:25AM 61.3800 10.8410 286° West 431 496 30,000  Level FlightAware
08:26AM 61.4020 10.6890 287° West 431 496 30,000  Level FlightAware
08:26AM 61.4190 10.5630 286° West 432 497 30,000  Level FlightAware
08:27AM 61.4390 10.4200 286° West 432 497 30,000  Level FlightAware
08:27AM 61.4580 10.2820 286° West 433 498 30,000  Level FlightAware
08:28AM 61.4770 10.1430 286° West 433 498 30,000  Level FlightAware
08:29AM 61.4960 10.0010 286° West 431 496 30,000  Level FlightAware
08:29AM 61.5150 9.8570 286° West 430 495 30,000  Level FlightAware
08:30AM 61.5320 9.7300 286° West 429 494 30,000  Level FlightAware
08:30AM 61.5500 9.5930 285° West 429 494 30,000  Level FlightAware
08:31AM 61.5710 9.4350 286° West 431 496 30,000  Level FlightAware
08:32AM 61.5880 9.3030 285° West 432 497 30,000  Level FlightAware
08:32AM 61.6040 9.1730 285° West 433 498 30,000  Level FlightAware
08:33AM 61.6250 9.0040 285° West 432 497 30,000  Level FlightAware
08:33AM 61.6410 8.8810 285° West 431 496 30,000  Level FlightAware
08:34AM 61.6590 8.7330 284° West 429 494 30,000  Level FlightAware
08:34AM 61.6770 8.5930 285° West 429 494 30,000  Level FlightAware
08:35AM 61.6940 8.4530 284° West 430 495 30,000  Level FlightAware
08:36AM 61.7100 8.3210 284° West 430 495 30,000  Level FlightAware
08:36AM 61.7280 8.1670 284° West 427 491 30,000  Level FlightAware
08:37AM 61.7440 8.0280 284° West 426 490 30,000  Level FlightAware
08:37AM 61.7620 7.8790 284° West 424 488 30,000  Level FlightAware
08:38AM 61.7760 7.7560 284° West 426 490 30,000  Level FlightAware
08:39AM 61.7930 7.6070 284° West 426 490 30,000  Level FlightAware
08:39AM 61.8070 7.4800 283° West 426 490 30,000  Level FlightAware
08:40AM 61.8230 7.3440 284° West 425 489 30,000  Level FlightAware
08:40AM 61.8410 7.1780 283° West 424 488 30,000  Level FlightAware
08:41AM 61.8560 7.0460 284° West 422 486 30,000  Level FlightAware
08:41AM 61.8720 6.9020 283° West 422 486 30,000  Level FlightAware
08:42AM 61.8880 6.7510 283° West 425 489 30,000  Level FlightAware
08:43AM 61.9020 6.6200 283° West 425 489 30,000  Level FlightAware
08:43AM 61.9170 6.4790 283° West 425 489 30,000  Level FlightAware
08:44AM 61.9310 6.3400 282° West 424 488 30,000  Level FlightAware
08:44AM 61.9460 6.2000 283° West 428 493 30,000  Level FlightAware
08:45AM 61.9620 6.0450 282° West 428 493 30,000  Level FlightAware
08:46AM 61.9770 5.8960 282° West 428 493 30,000  Level FlightAware
08:46AM 61.9900 5.7620 282° West 429 494 30,000  Level FlightAware
08:47AM 62.0040 5.6210 282° West 429 494 30,000  Level FlightAware
08:47AM 62.0180 5.4770 282° West 427 491 30,000  Level FlightAware
08:48AM 62.0340 5.3170 282° West 425 489 30,000  Level FlightAware
08:48AM 62.0460 5.1840 281° West 424 488 30,000  Level FlightAware
08:49AM 62.0600 5.0340 281° West 426 490 30,000  Level FlightAware
08:50AM 62.0730 4.8990 282° West 427 491 30,000  Level FlightAware
08:50AM 62.0870 4.7470 281° West 427 491 30,000  Level FlightAware
08:51AM 62.1000 4.6040 281° West 427 491 30,000  Level FlightAware
08:51AM 62.1140 4.4520 281° West 428 493 30,000  Level FlightAware
08:52AM 62.1260 4.3080 280° West 429 494 30,000  Level FlightAware
08:53AM 62.1380 4.1740 281° West 429 494 30,000  Level FlightAware
08:53AM 62.1510 4.0210 280° West 429 494 30,000  Level FlightAware
08:54AM 62.1650 3.8650 281° West 430 495 30,000 353 Level FlightAware
08:54AM 62.1750 3.7370 280° West 431 496 30,400 971 Climbing FlightAware
08:55AM 62.1880 3.5830 280° West 426 490 31,100 1,099 Climbing FlightAware
08:55AM 62.2000 3.4410 280° West 423 487 31,700 783 Climbing FlightAware
08:56AM 62.2110 3.2980 279° West 419 482 32,000 269 Climbing FlightAware
08:57AM 62.2220 3.1690 280° West 418 481 32,000  Level FlightAware
08:57AM 62.2330 3.0290 280° West 419 482 32,000  Level FlightAware
08:58AM 62.2440 2.8780 279° West 419 482 32,000  Level FlightAware
08:58AM 62.2570 2.7190 280° West 420 483 32,000  Level FlightAware
08:59AM 62.2660 2.5890 279° West 419 482 32,000  Level FlightAware
09:00AM 62.2770 2.4450 279° West 418 481 32,000  Level FlightAware
09:00AM 62.2880 2.3030 280° West 416 479 32,000  Level FlightAware
09:01AM 62.2980 2.1610 279° West 416 479 32,000  Level FlightAware
09:01AM 62.3090 2.0090 279° West 416 479 32,000  Level FlightAware
09:02AM 62.3180 1.8760 278° West 416 479 32,000  Level FlightAware
09:02AM 62.3290 1.7200 279° West 416 479 32,000  Level FlightAware
09:03AM 62.3380 1.5850 278° West 417 480 32,000  Level FlightAware
09:04AM 62.3470 1.4420 278° West 419 482 32,000  Level FlightAware
09:04AM 62.3580 1.2820 278° West 421 484 32,000  Level FlightAware
09:05AM 62.3680 1.1230 278° West 422 486 32,000  Level FlightAware
09:05AM 62.3780 0.9730 278° West 425 489 32,000  Level FlightAware
09:06AM 62.3870 0.8270 278° West 426 490 32,000  Level FlightAware
09:07AM 62.3960 0.6810 278° West 427 491 32,000  Level FlightAware
09:07AM 62.4040 0.5440 277° West 430 495 32,000  Level FlightAware
09:08AM 62.4150 0.3600 277° West 432 497 32,000  Level FlightAware
09:09AM 62.4250 0.1810 277° West 437 503 32,000  Level FlightAware
09:09AM 62.4330 0.0380 277° West 441 507 32,000  Level FlightAware
09:10AM 62.4470 -0.1280 280° West 449 517 32,000  Level FlightAware
09:10AM 62.4610 -0.2790 281° West 451 519 32,000  Level FlightAware
09:11AM 62.4720 -0.4030 281° West 452 520 32,000  Level FlightAware
09:12AM 62.4960 -0.6700 281° West 452 520 32,000  Level FlightAware
09:12AM 62.5100 -0.8280 281° West 451 519 32,000  Level FlightAware
09:13AM 62.5260 -1.0080 281° West 451 519 32,000  Level FlightAware
09:14AM 62.5370 -1.1380 280° West 452 520 32,000  Level FlightAware
09:14AM 62.5520 -1.3130 281° West 453 521 32,000  Level FlightAware
09:15AM 62.5680 -1.5120 280° West 451 519 32,000  Level FlightAware
09:16AM 62.5810 -1.6720 280° West 452 520 32,000  Level FlightAware
09:16AM 62.5950 -1.8460 280° West 457 526 32,000  Level FlightAware
09:17AM 62.6070 -1.9930 280° West 459 528 32,000  Level FlightAware
09:17AM 62.6190 -2.1520 279° West 461 531 32,000  Level FlightAware
09:18AM 62.6320 -2.3210 280° West 464 534 32,000  Level FlightAware
09:19AM 62.6430 -2.4600 280° West 468 539 32,000  Level FlightAware
09:19AM 62.6550 -2.6290 279° West 468 539 32,000  Level FlightAware
09:20AM 62.6650 -2.7670 279° West 468 539 32,000  Level FlightAware
09:20AM 62.6820 -2.9910 279° West 473 544 32,000  Level FlightAware
09:21AM 62.6930 -3.1640 278° West 474 545 32,000  Level FlightAware
09:22AM 62.7020 -3.3090 278° West 474 545 32,000  Level FlightAware
09:22AM 62.7120 -3.4620 278° West 474 545 32,000  Level FlightAware
09:23AM 62.7210 -3.6060 278° West 474 545 32,000  Level FlightAware
09:24AM 62.7310 -3.7560 278° West 474 545 32,000  Level FlightAware
09:24AM 62.7400 -3.9010 278° West 474 545 32,000  Level FlightAware
09:25AM 62.7500 -4.0460 279° West 474 545 32,000  Level FlightAware
09:25AM 62.7730 -4.3770 279° West 478 550 32,000  Level FlightAware
09:26AM 62.7830 -4.5610 277° West 478 550 32,000  Level FlightAware
09:27AM 62.7920 -4.7070 278° West 478 550 32,000  Level FlightAware
09:27AM 62.8000 -4.8540 277° West 478 550 32,000  Level FlightAware
09:28AM 62.8080 -5.0010 277° West 478 550 32,000  Level FlightAware
09:28AM 62.8160 -5.1480 277° West 478 550 32,000  Level FlightAware
09:29AM 62.8240 -5.2950 277° West 478 550 32,000  Level FlightAware
09:30AM 62.8330 -5.4470 277° West 478 550 32,000 1,120 Level FlightAware
09:30AM 62.8520 -5.7950 277° West 469 540 33,400 1,545 Climbing FlightAware
09:31AM 62.8580 -5.9270 276° West 471 542 33,700 273 Climbing FlightAware
09:31AM 62.8660 -6.0810 277° West 471 542 33,700  Level FlightAware
09:32AM 62.8730 -6.2260 276° West 471 542 33,700  Level FlightAware
09:33AM 62.8800 -6.3720 276° West 471 542 33,700 92 Level FlightAware
09:35AM 62.8914 -6.8801 273° West  Level Estimated
09:35AM 62.9150 -7.1980 273° West 467 537 34,000  Level FlightAware
09:36AM 62.9240 -7.4060 276° West 467 537 34,000  Level FlightAware
09:37AM 62.9300 -7.5550 275° West 467 537 34,000  Level FlightAware
09:37AM 62.9350 -7.6990 274° West 467 537 34,000  Level FlightAware
09:38AM 62.9410 -7.8400 275° West 467 537 34,000  Level FlightAware
09:38AM 62.9470 -7.9850 275° West 467 537 34,000  Level FlightAware
09:39AM 62.9530 -8.1340 275° West 467 537 34,000  Level FlightAware
09:40AM 62.9580 -8.2790 274° West 467 537 34,000  Level FlightAware
09:41AM 62.9260 -7.4780 95° East 467 537 34,000  Level FlightAware
09:41AM 62.9300 -7.6230 274° West 467 537 34,000  Level FlightAware
09:42AM 62.9350 -7.7720 274° West 467 537 34,000  Level FlightAware
09:42AM 62.9820 -9.2200 275° West 463 533 34,000  Level FlightAware
09:43AM 62.9860 -9.3830 273° West 461 531 34,000  Level FlightAware
09:44AM 62.9900 -9.5350 273° West 460 529 34,000  Level FlightAware
09:44AM 62.9940 -9.7020 273° West 459 528 34,000  Level FlightAware
09:45AM 62.9970 -9.8550 273° West 461 531 34,000  Level FlightAware
09:45AM 63.0000 -10.0120 272° West 462 532 34,000  Level FlightAware
09:46AM 63.0060 -10.1920 274° West 465 535 34,000  Level FlightAware
09:46AM 63.0120 -10.3600 275° West 465 535 34,000  Level FlightAware
09:47AM 63.0180 -10.5220 275° West 465 535 34,000  Level FlightAware
09:48AM 63.0230 -10.6820 274° West 464 534 34,000  Level FlightAware
09:48AM 63.0280 -10.8500 274° West 463 533 34,000  Level FlightAware
09:49AM 63.0320 -11.0030 273° West 462 532 34,000  Level FlightAware
09:49AM 63.0370 -11.1600 274° West 462 532 34,000  Level FlightAware
09:50AM 63.0410 -11.3280 273° West 461 531 34,000  Level FlightAware
09:51AM 63.0460 -11.5120 274° West 459 528 34,000  Level FlightAware
09:51AM 63.0490 -11.6600 273° West 458 527 34,000  Level FlightAware
09:52AM 63.0530 -11.8310 273° West 459 528 34,000  Level FlightAware
09:52AM 63.0570 -11.9890 273° West 458 527 34,000  Level FlightAware
09:53AM 63.0610 -12.1950 273° West 460 529 34,000  Level FlightAware
09:54AM 63.0640 -12.3630 272° West 461 531 34,000  Level FlightAware
09:54AM 63.0670 -12.5140 273° West 463 533 34,000  Level FlightAware
09:55AM 63.0700 -12.6850 272° West 464 534 34,000  Level FlightAware
09:55AM 63.0720 -12.8470 272° West 466 536 34,000  Level FlightAware
09:56AM 63.0750 -13.0110 272° West 464 534 34,000  Level FlightAware
09:56AM 63.0770 -13.1760 272° West 464 534 34,000  Level FlightAware
09:57AM 63.0790 -13.3500 272° West 465 535 34,000  Level FlightAware
09:58AM 63.0810 -13.4970 272° West 464 534 34,000  Level FlightAware
09:58AM 63.0820 -13.6780 271° West 464 534 34,000  Level FlightAware
09:59AM 63.0840 -13.8310 272° West 464 534 34,000  Level FlightAware
09:59AM 63.0850 -13.9900 271° West 466 536 34,000  Level FlightAware
10:00AM 63.0860 -14.1780 271° West 468 539 34,000  Level FlightAware
10:01AM 63.0870 -14.3400 271° West 469 540 34,000  Level FlightAware
10:01AM 63.0880 -14.4870 271° West 470 541 34,000  Level FlightAware
10:02AM 63.0880 -14.6450 270° West 471 542 34,000  Level FlightAware
10:02AM 63.0890 -14.8210 271° West 470 541 34,000  Level FlightAware
10:03AM 63.0890 -14.9660 270° West 470 541 34,000  Level FlightAware
10:03AM 63.0890 -15.1340 270° West 471 542 34,000  Level FlightAware
10:04AM 63.0880 -15.2980 269° West 470 541 34,000  Level FlightAware
10:04AM 63.0880 -15.4690 270° West 470 541 34,000  Level FlightAware
10:05AM 63.0870 -15.6350 269° West 471 542 34,000  Level FlightAware
10:06AM 63.0860 -15.8040 269° West 470 541 34,000  Level FlightAware
10:06AM 63.0850 -15.9860 269° West 471 542 34,000  Level FlightAware
10:07AM 63.0840 -16.1330 269° West 472 543 34,000  Level FlightAware
10:07AM 63.0830 -16.3060 269° West 473 544 34,000  Level FlightAware
10:08AM 63.0810 -16.4860 269° West 474 545 34,000  Level FlightAware
10:09AM 63.0790 -16.6510 269° West 475 547 34,000  Level FlightAware
10:09AM 63.0770 -16.8360 269° West 475 547 34,000  Level FlightAware
10:10AM 63.0750 -16.9890 268° West 477 549 34,000  Level FlightAware
10:10AM 63.0720 -17.1630 268° West 478 550 34,000  Level FlightAware
10:11AM 63.0670 -17.4030 267° West 479 551 34,000  Level FlightAware
10:12AM 63.0650 -17.6010 269° West 478 550 34,000  Level FlightAware
10:12AM 63.0620 -17.7700 268° West 478 550 34,000  Level FlightAware
10:13AM 63.0580 -17.9500 267° West 477 549 34,000  Level FlightAware
10:14AM 63.0550 -18.0970 267° West 476 548 34,000  Level FlightAware
10:14AM 63.0500 -18.2920 267° West 476 548 34,000  Level FlightAware
10:15AM 63.0470 -18.4530 268° West 476 548 34,000  Level FlightAware
10:15AM 63.0420 -18.6160 266° West 476 548 34,000  Level FlightAware
10:16AM 63.0380 -18.7800 267° West 477 549 34,000  Level FlightAware
10:17AM 63.0330 -18.9550 266° West 475 547 34,000  Level FlightAware
10:17AM 63.0280 -19.1300 266° West 477 549 34,000  Level FlightAware
10:18AM 63.0230 -19.2970 266° West 479 551 34,000  Level FlightAware
10:18AM 63.0180 -19.4600 266° West 479 551 34,000  Level FlightAware
10:19AM 63.0130 -19.6310 266° West 478 550 34,000  Level FlightAware
10:19AM 63.0080 -19.7880 266° West 476 548 34,000  Level FlightAware
10:20AM 62.9980 -19.9690 263° West 475 547 34,000  Level FlightAware
10:21AM 62.9790 -20.1350 256° West 474 545 34,000  Level FlightAware
10:21AM 62.9540 -20.2930 251° West 473 544 34,000  Level FlightAware
10:22AM 62.9310 -20.4470 252° West 474 545 34,000  Level FlightAware
10:22AM 62.9040 -20.6180 251° West 478 550 34,000  Level FlightAware
10:23AM 62.8780 -20.7820 251° West 480 552 34,000  Level FlightAware
10:23AM 62.8560 -20.9210 251° West 479 551 34,000  Level FlightAware
10:24AM 62.8260 -21.1040 250° West 477 549 34,000  Level FlightAware
10:25AM 62.8010 -21.2590 251° West 477 549 34,000  Level FlightAware
10:25AM 62.7770 -21.4040 250° West 477 549 34,000  Level FlightAware
10:26AM 62.7510 -21.5640 251° West 478 550 34,000  Level FlightAware
10:26AM 62.7250 -21.7180 250° West 478 550 34,000  Level FlightAware
10:27AM 62.7000 -21.8630 249° West 476 548 34,000  Level FlightAware
10:28AM 62.6720 -22.0320 250° West 474 545 34,000  Level FlightAware
10:28AM 62.6450 -22.1870 249° West 473 544 34,000  Level FlightAware
10:29AM 62.6170 -22.3490 249° West 470 541 34,000  Level FlightAware
10:29AM 62.5880 -22.5180 250° West 469 540 34,000  Level FlightAware
10:30AM 62.5650 -22.6490 249° West 469 540 34,000  Level FlightAware
10:31AM 62.5380 -22.7980 249° West 469 540 34,000  Level FlightAware
10:31AM 62.5060 -22.9760 249° West 468 539 34,000  Level FlightAware
10:32AM 62.4820 -23.1130 249° West 469 540 34,000  Level FlightAware
10:32AM 62.4520 -23.2790 249° West 469 540 34,000  Level FlightAware
10:33AM 62.4260 -23.4220 249° West 469 540 34,000  Level FlightAware
10:33AM 62.3970 -23.5780 248° West 469 540 34,000  Level FlightAware
10:34AM 62.3710 -23.7180 248° West 471 542 34,000  Level FlightAware
10:35AM 62.3410 -23.8760 248° West 468 539 34,000  Level FlightAware
10:35AM 62.3100 -24.0390 248° West 467 537 34,000  Level FlightAware
10:36AM 62.2820 -24.1890 248° West 466 536 34,000  Level FlightAware
10:36AM 62.2530 -24.3360 247° West 465 535 34,000  Level FlightAware
10:37AM 62.2290 -24.4640 248° West 463 533 34,000  Level FlightAware
10:38AM 62.1980 -24.6210 247° West 463 533 34,000  Level FlightAware
10:38AM 62.1570 -24.8290 247° West 463 533 34,000  Level FlightAware
10:39AM 62.1270 -24.9850 248° West 462 532 34,000  Level FlightAware
10:40AM 62.1000 -25.1200 247° West 460 529 34,000  Level FlightAware
10:40AM 62.0700 -25.2680 247° West 459 528 34,000  Level FlightAware
10:41AM 62.0390 -25.4200 247° West 459 528 34,000  Level FlightAware
10:41AM 62.0100 -25.5610 246° West 460 529 34,000  Level FlightAware
10:42AM 61.9780 -25.7180 247° West 461 531 34,000  Level FlightAware
10:43AM 61.9490 -25.8590 246° West 462 532 34,000  Level FlightAware
10:43AM 61.9230 -25.9840 246° West 462 532 34,000  Level FlightAware
10:44AM 61.8880 -26.1510 246° West 464 534 34,000  Level FlightAware
10:44AM 61.8540 -26.3150 246° West 467 537 34,000  Level FlightAware
10:45AM 61.8210 -26.4660 245° Southwest 468 539 34,000  Level FlightAware
10:45AM 61.7920 -26.6030 246° West 469 540 34,000  Level FlightAware
10:46AM 61.7570 -26.7640 245° Southwest 469 540 34,000  Level FlightAware
10:47AM 61.7280 -26.8980 245° Southwest 468 539 34,000  Level FlightAware
10:47AM 61.6970 -27.0420 246° West 469 540 34,000  Level FlightAware
10:48AM 61.6640 -27.1910 245° Southwest 469 540 34,000  Level FlightAware
10:49AM 61.6260 -27.3610 245° Southwest 470 541 34,000  Level FlightAware
10:49AM 61.5970 -27.4930 245° Southwest 465 535 34,000  Level FlightAware
10:50AM 61.5640 -27.6340 244° Southwest 465 535 34,000  Level FlightAware
10:50AM 61.5260 -27.8040 245° Southwest 467 537 34,000  Level FlightAware
10:51AM 61.4980 -27.9260 244° Southwest 466 536 34,000  Level FlightAware
10:51AM 61.4660 -28.0680 245° Southwest 465 535 34,000  Level FlightAware
10:52AM 61.4300 -28.2230 244° Southwest 464 534 34,000  Level FlightAware
10:53AM 61.4030 -28.3410 244° Southwest 462 532 34,000  Level FlightAware
10:53AM 61.3650 -28.5020 244° Southwest 461 531 34,000  Level FlightAware
10:54AM 61.3320 -28.6360 243° Southwest 461 531 34,000  Level FlightAware
10:55AM 61.3020 -28.7580 243° Southwest 461 531 34,000  Level FlightAware
10:55AM 61.2710 -28.8850 243° Southwest 461 531 34,000  Level FlightAware
10:56AM 61.2330 -29.0400 243° Southwest 461 531 34,000  Level FlightAware
10:57AM 61.2040 -29.1610 244° Southwest 461 531 34,000  Level FlightAware
10:57AM 61.1720 -29.2880 242° Southwest 461 531 34,000  Level FlightAware
10:58AM 61.1440 -29.4020 243° Southwest 461 531 34,000  Level FlightAware
10:58AM 61.1150 -29.5220 243° Southwest 461 531 34,000  Level FlightAware
10:59AM 61.0850 -29.6420 243° Southwest 461 531 34,000  Level FlightAware
11:00AM 61.0540 -29.7690 243° Southwest 461 531 34,000  Level FlightAware
11:00AM 61.0220 -29.8960 243° Southwest 461 531 34,000  Level FlightAware
11:01AM 60.9920 -30.0190 243° Southwest 461 531 34,000  Level FlightAware
11:01AM 60.9620 -30.1390 243° Southwest 461 531 34,000  Level FlightAware
11:02AM 60.9330 -30.2590 244° Southwest 461 531 34,000  Level FlightAware
11:03AM 60.9040 -30.3750 243° Southwest 461 531 34,000  Level FlightAware
11:03AM 60.8730 -30.4980 243° Southwest 461 531 34,000 Level FlightAware
11:06AM 60.7904 -31.0340 253° West  Level FlightAware Approximate
11:07AM 60.7538 -31.2662 252° West  Level FlightAware Approximate
11:08AM 60.7168 -31.4978 252° West  Level FlightAware Approximate
11:09AM 60.6794 -31.7290 252° West  Level FlightAware Approximate
11:10AM 60.6416 -31.9595 252° West  Level FlightAware Approximate
11:11AM 60.6034 -32.1895 251° West  Level FlightAware Approximate
11:12AM 60.5648 -32.4190 251° West  Level FlightAware Approximate
11:13AM 60.5259 -32.6480 251° West  Level FlightAware Approximate
11:14AM 60.4865 -32.8763 251° West  Level FlightAware Approximate
11:15AM 60.4468 -33.1042 251° West  Level FlightAware Approximate
11:16AM 60.4066 -33.3314 250° West  Level FlightAware Approximate
11:17AM 60.3661 -33.5581 250° West  Level FlightAware Approximate
11:18AM 60.3252 -33.7843 250° West  Level FlightAware Approximate
11:19AM 60.2839 -34.0098 250° West  Level FlightAware Approximate
11:20AM 60.2422 -34.2348 250° West  Level FlightAware Approximate
11:21AM 60.2002 -34.4593 249° West  Level FlightAware Approximate
11:22AM 60.1578 -34.6831 249° West  Level FlightAware Approximate
11:23AM 60.1150 -34.9064 249° West  Level FlightAware Approximate
11:24AM 60.0718 -35.1291 249° West  Level FlightAware Approximate
11:25AM 60.0282 -35.3512 249° West  Level FlightAware Approximate
11:26AM 59.9843 -35.5727 248° West  Level FlightAware Approximate
11:27AM 59.9400 -35.7936 248° West  Level FlightAware Approximate
11:28AM 59.8954 -36.0139 248° West  Level FlightAware Approximate
11:29AM 59.8503 -36.2337 248° West  Level FlightAware Approximate
11:30AM 59.8049 -36.4528 248° West  Level FlightAware Approximate
11:31AM 59.7592 -36.6713 248° West  Level FlightAware Approximate
11:32AM 59.7131 -36.8893 247° West  Level FlightAware Approximate
11:33AM 59.6666 -37.1066 247° West  Level FlightAware Approximate
11:34AM 59.6197 -37.3233 247° West  Level FlightAware Approximate
11:35AM 59.5725 -37.5395 247° West  Level FlightAware Approximate
11:36AM 59.5250 -37.7550 247° West  Level FlightAware Approximate
11:37AM 59.4771 -37.9699 246° West  Level FlightAware Approximate
11:38AM 59.4288 -38.1842 246° West  Level FlightAware Approximate
11:39AM 59.3802 -38.3979 246° West  Level FlightAware Approximate
11:40AM 59.3313 -38.6110 246° West  Level FlightAware Approximate
11:41AM 59.2820 -38.8234 246° West  Level FlightAware Approximate
11:42AM 59.2323 -39.0353 245° Southwest  Level FlightAware Approximate
11:43AM 59.1823 -39.2465 245° Southwest  Level FlightAware Approximate
11:44AM 59.1320 -39.4571 245° Southwest  Level FlightAware Approximate
11:45AM 59.0813 -39.6671 245° Southwest  Level FlightAware Approximate
11:46AM 59.0303 -39.8765 245° Southwest  Level FlightAware Approximate
11:47AM 58.9791 -40.0860 245° Southwest  Level FlightAware Approximate
11:48AM 58.9282 -40.2947 245° Southwest  Level FlightAware Approximate
11:49AM 58.8769 -40.5029 245° Southwest  Level FlightAware Approximate
11:50AM 58.8252 -40.7104 244° Southwest  Level FlightAware Approximate
11:51AM 58.7733 -40.9174 244° Southwest  Level FlightAware Approximate
11:52AM 58.7210 -41.1237 244° Southwest  Level FlightAware Approximate
11:53AM 58.6683 -41.3293 244° Southwest  Level FlightAware Approximate
11:54AM 58.6154 -41.5344 244° Southwest  Level FlightAware Approximate
11:55AM 58.5621 -41.7388 244° Southwest  Level FlightAware Approximate
11:56AM 58.5085 -41.9426 243° Southwest  Level FlightAware Approximate
11:57AM 58.4545 -42.1458 243° Southwest  Level FlightAware Approximate
11:58AM 58.4003 -42.3484 243° Southwest  Level FlightAware Approximate
11:59AM 58.3457 -42.5503 243° Southwest  Level FlightAware Approximate
12:00PM 58.2908 -42.7517 243° Southwest  Level FlightAware Approximate
12:01PM 58.2356 -42.9523 242° Southwest  Level FlightAware Approximate
12:02PM 58.1801 -43.1524 242° Southwest  Level FlightAware Approximate
12:03PM 58.1243 -43.3518 242° Southwest  Level FlightAware Approximate
12:04PM 58.0681 -43.5507 242° Southwest  Level FlightAware Approximate
12:05PM 58.0117 -43.7488 242° Southwest  Level FlightAware Approximate
12:06PM 57.9549 -43.9464 242° Southwest  Level FlightAware Approximate
12:07PM 57.8979 -44.1433 241° Southwest  Level FlightAware Approximate
12:08PM 57.8405 -44.3396 241° Southwest  Level FlightAware Approximate
12:09PM 57.7829 -44.5353 241° Southwest  Level FlightAware Approximate
12:10PM 57.7249 -44.7304 241° Southwest  Level FlightAware Approximate
12:11PM 57.6666 -44.9248 241° Southwest  Level FlightAware Approximate
12:12PM 57.6081 -45.1186 241° Southwest  Level FlightAware Approximate
12:13PM 57.5498 -45.3124 241° Southwest  Level FlightAware Approximate
12:14PM 57.4916 -45.5061 241° Southwest  Level FlightAware Approximate
12:15PM 57.4332 -45.6991 241° Southwest  Level FlightAware Approximate
12:16PM 57.3745 -45.8915 241° Southwest  Level FlightAware Approximate
12:17PM 57.3155 -46.0832 240° Southwest  Level FlightAware Approximate
12:18PM 57.2561 -46.2744 240° Southwest  Level FlightAware Approximate
12:19PM 57.1965 -46.4650 240° Southwest  Level FlightAware Approximate
12:20PM 57.1367 -46.6549 240° Southwest  Level FlightAware Approximate
12:21PM 57.0765 -46.8442 240° Southwest  Level FlightAware Approximate
12:22PM 57.0160 -47.0329 240° Southwest  Level FlightAware Approximate
12:23PM 56.9553 -47.2210 239° Southwest  Level FlightAware Approximate
12:24PM 56.8943 -47.4085 239° Southwest  Level FlightAware Approximate
12:25PM 56.8330 -47.5953 239° Southwest  Level FlightAware Approximate
12:26PM 56.7714 -47.7816 239° Southwest  Level FlightAware Approximate
12:27PM 56.7095 -47.9672 239° Southwest  Level FlightAware Approximate
12:28PM 56.6474 -48.1522 239° Southwest  Level FlightAware Approximate
12:29PM 56.5850 -48.3366 238° Southwest  Level FlightAware Approximate
12:30PM 56.5223 -48.5204 238° Southwest  Level FlightAware Approximate
12:31PM 56.4594 -48.7036 238° Southwest  Level FlightAware Approximate
12:32PM 56.3961 -48.8862 238° Southwest  Level FlightAware Approximate
12:33PM 56.3326 -49.0682 238° Southwest  Level FlightAware Approximate
12:34PM 56.2689 -49.2496 238° Southwest  Level FlightAware Approximate
12:35PM 56.2049 -49.4304 238° Southwest  Level FlightAware Approximate
12:36PM 56.1406 -49.6105 237° Southwest  Level FlightAware Approximate
12:37PM 56.0760 -49.7901 237° Southwest  Level FlightAware Approximate
12:38PM 56.0112 -49.9691 237° Southwest  Level FlightAware Approximate
12:39PM 55.9653 -50.1648 249° West  Level FlightAware Approximate
12:40PM 55.9230 -50.3637 249° West  Level FlightAware Approximate
12:41PM 55.8804 -50.5621 249° West  Level FlightAware Approximate
12:42PM 55.8375 -50.7601 249° West  Level FlightAware Approximate
12:43PM 55.7943 -50.9577 249° West  Level FlightAware Approximate
12:44PM 55.7508 -51.1549 249° West  Level FlightAware Approximate
12:45PM 55.7076 -51.3520 249° West  Level FlightAware Approximate
12:46PM 55.6644 -51.5490 249° West  Level FlightAware Approximate
12:47PM 55.6210 -51.7455 249° West  Level FlightAware Approximate
12:48PM 55.5772 -51.9417 249° West  Level FlightAware Approximate
12:49PM 55.5332 -52.1373 248° West  Level FlightAware Approximate
12:50PM 55.4888 -52.3326 248° West  Level FlightAware Approximate
12:51PM 55.4441 -52.5274 248° West  Level FlightAware Approximate
12:52PM 55.3991 -52.7217 248° West  Level FlightAware Approximate
12:53PM 55.3538 -52.9156 248° West  Level FlightAware Approximate
12:54PM 55.3082 -53.1091 248° West  Level FlightAware Approximate
12:54PM 54.8333 -54.9500 247° West 450 518 35,000  Level Gander Center
12:55PM 55.2623 -53.3021 247° West  Level FlightAware Approximate
12:55PM 54.7833 -55.1667 248° West 450 518 35,000  Level Gander Center
12:56PM 55.2161 -53.4947 247° West  Level FlightAware Approximate
12:56PM 54.7500 -55.3667 254° West 450 518 35,000  Level Gander Center
12:57PM 55.1696 -53.6869 247° West  Level FlightAware Approximate
12:57PM 54.6833 -55.5500 238° Southwest 460 529 35,000  Level Gander Center
12:58PM 55.1234 -53.8759 247° West  Level FlightAware Approximate
12:58PM 54.6333 -55.7667 248° West 450 518 35,300  Level Gander Center
12:59PM 55.0769 -54.0646 247° West  Level FlightAware Approximate
12:59PM 54.5333 -55.9167 221° Southwest 460 529 35,900  Level Gander Center
01:00PM 54.4500 -56.0833 229° Southwest 460 529 36,600 550 Climbing Gander Center
01:01PM 54.3833 -56.2500 236° Southwest 460 529 37,000 485 Climbing Gander Center
01:02PM 54.3167 -56.3667 226° Southwest 460 529 37,400 485 Climbing Moncton Center
01:03PM 54.2333 -56.5333 229° Southwest 460 529 37,800 300 Climbing Moncton Center
01:04PM 54.1500 -56.6833 227° Southwest 460 529 38,000 100 Climbing Moncton Center
01:05PM 54.0667 -56.8500 230° Southwest 460 529 38,000  Level Moncton Center
01:06PM 53.9667 -57.0000 221° Southwest 460 529 38,000  Level Moncton Center
01:07PM 53.8667 -57.2333 234° Southwest 460 529 38,000  Level Gander Center
01:08PM 53.7833 -57.4000 230° Southwest 460 529 38,000  Level Gander Center
01:09PM 53.7333 -57.5000 230° Southwest 460 529 38,000  Level Moncton Center
01:10PM 53.6333 -57.6500 222° Southwest 460 529 38,000  Level Moncton Center
01:11PM 53.5500 -57.8167 230° Southwest 460 529 38,000  Level Moncton Center
01:12PM 53.4667 -57.9833 230° Southwest 450 518 38,000  Level Moncton Center
01:13PM 53.3833 -58.1500 230° Southwest 450 518 38,000  Level Moncton Center
01:14PM 53.3000 -58.3000 227° Southwest 450 518 38,000  Level Moncton Center
01:15PM 53.2167 -58.4500 227° Southwest 450 518 38,000  Level Moncton Center
01:16PM 53.1333 -58.6000 227° Southwest 450 518 38,000  Level Moncton Center
01:17PM 53.0500 -58.7500 227° Southwest 450 518 38,000  Level Moncton Center
01:18PM 52.9667 -58.9000 227° Southwest 450 518 38,000  Level Moncton Center
01:19PM 52.8500 -59.1167 228° Southwest 450 518 38,000  Level Gander Center
01:20PM 52.7667 -59.2667 227° Southwest 450 518 38,000  Level Gander Center
01:21PM 52.6833 -59.4000 224° Southwest 450 518 38,000  Level Gander Center
01:22PM 52.6000 -59.5833 233° Southwest 450 518 38,000  Level Gander Center
01:23PM 52.5000 -59.7167 219° Southwest 450 518 38,000  Level Gander Center
01:24PM 52.4167 -59.8500 224° Southwest 440 506 38,000  Level Gander Center
01:25PM 52.3333 -60.0000 228° Southwest 440 506 38,000  Level Gander Center
01:26PM 52.2500 -60.1667 231° Southwest 440 506 38,000  Level Gander Center
01:27PM 52.2000 -60.2500 226° Southwest 450 518 38,000  Level Moncton Center
01:28PM 52.1000 -60.4000 223° Southwest 450 518 38,000  Level Moncton Center
01:29PM 52.0167 -60.5333 225° Southwest 440 506 38,000  Level Moncton Center
01:30PM 51.9333 -60.6833 228° Southwest 440 506 38,000  Level Moncton Center
01:31PM 51.8167 -60.8833 227° Southwest 440 506 38,000  Level Gander Center
01:32PM 51.7333 -61.0167 225° Southwest 440 506 38,000  Level Gander Center
01:33PM 51.6667 -61.1000 218° Southwest 440 506 38,000  Level Moncton Center
01:34PM 51.5500 -61.2833 224° Southwest 440 506 38,000  Level Gander Center
01:35PM 51.5167 -61.3833 242° Southwest 440 506 38,000  Level Moncton Center
01:36PM 51.4167 -61.5333 223° Southwest 440 506 38,000  Level Moncton Center
01:37PM 51.3000 -61.7167 225° Southwest 430 495 38,000  Level Gander Center
01:38PM 51.2167 -61.8500 225° Southwest 440 506 38,000  Level Gander Center
01:39PM 51.1333 -61.9667 221° Southwest 430 495 38,000  Level Gander Center
01:40PM 51.0667 -62.0500 218° Southwest 440 506 38,000  Level Moncton Center
01:41PM 51.0000 -62.1833 232° Southwest 440 506 38,000  Level Moncton Center
01:42PM 50.9167 -62.3333 229° Southwest 430 495 38,000  Level Moncton Center
01:43PM 50.8167 -62.4667 220° Southwest 420 483 38,000  Level Moncton Center
01:44PM 50.7000 -62.6500 225° Southwest 430 495 38,000  Level Gander Center
01:50PM 50.2300 -63.3910 225° Southwest 420 483 38,000  Level FlightAware
01:50PM 50.1840 -63.4590 223° Southwest 419 482 38,000  Level FlightAware
01:51PM 50.1300 -63.5400 224° Southwest 418 481 38,000  Level FlightAware
01:51PM 50.0860 -63.6040 223° Southwest 420 483 38,000  Level FlightAware
01:52PM 50.0360 -63.6780 224° Southwest 421 484 38,000  Level FlightAware
01:53PM 49.9840 -63.7540 223° Southwest 420 483 38,000  Level FlightAware
01:53PM 49.9370 -63.8230 223° Southwest 420 483 38,000  Level FlightAware
01:55PM 49.7910 -64.0350 223° Southwest 421 484 38,000  Level FlightAware
01:57PM 49.6400 -64.2530 223° Southwest 420 483 38,000  Level FlightAware
01:57PM 49.5900 -64.3250 223° Southwest 421 484 38,000  Level FlightAware
01:58PM 49.5340 -64.4040 222° Southwest 421 484 38,000  Level FlightAware
01:58PM 49.4850 -64.4740 223° Southwest 421 484 38,000  Level FlightAware
01:59PM 49.4360 -64.5440 223° Southwest 420 483 38,000  Level FlightAware
02:00PM 49.3840 -64.6170 222° Southwest 418 481 38,000  Level FlightAware
02:00PM 49.3350 -64.6870 223° Southwest 416 479 38,000  Level FlightAware
02:01PM 49.2940 -64.7440 222° Southwest 416 479 38,000  Level FlightAware
02:01PM 49.2490 -64.8070 222° Southwest 416 479 38,000  Level FlightAware
02:02PM 49.2000 -64.8750 222° Southwest 412 474 38,000  Level FlightAware
02:02PM 49.1460 -64.9510 223° Southwest 408 470 38,000  Level FlightAware
02:03PM 49.1010 -65.0140 223° Southwest 406 467 38,000  Level FlightAware
02:04PM 49.0520 -65.0820 222° Southwest 403 464 38,000  Level FlightAware
02:04PM 49.0020 -65.1510 222° Southwest 402 463 38,000  Level FlightAware
02:05PM 48.9570 -65.2130 222° Southwest 400 460 38,000  Level FlightAware
02:05PM 48.9100 -65.2780 222° Southwest 399 459 38,000  Level FlightAware
02:06PM 48.8560 -65.3520 222° Southwest 397 457 38,000  Level FlightAware
02:07PM 48.8080 -65.4180 222° Southwest 395 455 38,000  Level FlightAware
02:07PM 48.7630 -65.4790 222° Southwest 397 457 38,000  Level FlightAware
02:08PM 48.7150 -65.5440 222° Southwest 395 455 38,000  Level FlightAware
02:08PM 48.6660 -65.6110 222° Southwest 395 455 38,000  Level FlightAware
02:09PM 48.6190 -65.6750 222° Southwest 396 456 38,000  Level FlightAware
02:09PM 48.5730 -65.7370 222° Southwest 397 457 38,000  Level FlightAware
02:10PM 48.5230 -65.8040 222° Southwest 397 457 38,000  Level FlightAware
02:11PM 48.4760 -65.8680 222° Southwest 398 458 38,000  Level FlightAware
02:11PM 48.4170 -65.9460 221° Southwest 398 458 38,000  Level FlightAware
02:12PM 48.3690 -66.0110 222° Southwest 400 460 38,000  Level FlightAware
02:12PM 48.3240 -66.0710 222° Southwest 399 459 38,000  Level FlightAware
02:13PM 48.2730 -66.1390 222° Southwest 400 460 38,000  Level FlightAware
02:14PM 48.2240 -66.2030 221° Southwest 402 463 38,000  Level FlightAware
02:14PM 48.1760 -66.2670 222° Southwest 400 460 38,000  Level FlightAware
02:15PM 48.1310 -66.3270 222° Southwest 400 460 38,000  Level FlightAware
02:15PM 48.0800 -66.3930 221° Southwest 398 458 38,000  Level FlightAware
02:16PM 48.0300 -66.4590 221° Southwest 398 458 38,000  Level FlightAware
02:17PM 47.9840 -66.5190 221° Southwest 399 459 38,000  Level FlightAware
02:17PM 47.9410 -66.5750 221° Southwest 398 458 38,000  Level FlightAware
02:18PM 47.8820 -66.6520 221° Southwest 398 458 38,000  Level FlightAware
02:18PM 47.8380 -66.7090 221° Southwest 399 459 38,000  Level FlightAware
02:19PM 47.7950 -66.7640 221° Southwest 401 461 38,000  Level FlightAware
02:19PM 47.7380 -66.8390 222° Southwest 401 461 38,000  Level FlightAware
02:20PM 47.6910 -66.8980 220° Southwest 399 459 38,000  Level FlightAware
02:21PM 47.6440 -66.9600 222° Southwest 397 457 38,000  Level FlightAware
02:21PM 47.5920 -67.0260 221° Southwest 397 457 38,000  Level FlightAware
02:22PM 47.5440 -67.0870 221° Southwest 399 459 38,000  Level FlightAware
02:22PM 47.4980 -67.1460 221° Southwest 398 458 38,000  Level FlightAware
02:23PM 47.4460 -67.2120 221° Southwest 399 459 38,000  Level FlightAware
02:24PM 47.3980 -67.2730 221° Southwest 400 460 38,000  Level FlightAware
02:24PM 47.3490 -67.3250 216° Southwest 406 467 38,000  Level FlightAware
02:25PM 47.2790 -67.3890 212° Southwest 407 468 38,000  Level FlightAware
02:25PM 47.2260 -67.4370 212° Southwest 407 468 38,000  Level FlightAware
02:26PM 47.1680 -67.4900 212° Southwest 409 471 38,000  Level FlightAware
02:27PM 47.1090 -67.5440 212° Southwest 408 470 38,000  Level FlightAware
02:27PM 47.0530 -67.5940 211° Southwest 407 468 38,000  Level FlightAware
02:28PM 46.9950 -67.6460 211° Southwest 403 464 38,000  Level FlightAware
02:28PM 46.9430 -67.6930 212° Southwest 403 464 38,000  Level FlightAware
02:29PM 46.8870 -67.7420 211° Southwest 403 464 38,000  Level FlightAware
02:30PM 46.8290 -67.7940 212° Southwest 402 463 38,000  Level FlightAware
02:30PM 46.7710 -67.8460 212° Southwest 403 464 38,000  Level FlightAware
02:31PM 46.7210 -67.8900 211° Southwest 402 463 38,000  Level FlightAware
02:31PM 46.6640 -67.9400 211° Southwest 400 460 38,000  Level FlightAware
02:32PM 46.6070 -67.9900 211° Southwest 397 457 38,000  Level FlightAware
02:32PM 46.5601 -68.0317 211° Southwest 395 455 38,000  Level FlightAware ADS-B
02:33PM 46.5090 -68.0760 211° Southwest 391 450 38,000  Level FlightAware
02:33PM 46.4550 -68.1240 211° Southwest 389 448 38,000  Level FlightAware
02:34PM 46.4020 -68.1700 211° Southwest 389 448 38,000  Level FlightAware
02:35PM 46.3480 -68.2180 212° Southwest 391 450 38,000  Level FlightAware
02:35PM 46.2930 -68.2650 211° Southwest 392 451 38,000  Level FlightAware
02:35PM 46.2833 -68.2737 212° Southwest 393 452 38,000  Level FlightAware ADS-B
02:36PM 46.2224 -68.3266 211° Southwest 395 455 38,000  Level FlightAware ADS-B
02:37PM 46.1724 -68.3698 211° Southwest 394 453 38,000  Level FlightAware ADS-B
02:37PM 46.1270 -68.4090 211° Southwest 398 458 38,000  Level FlightAware
02:38PM 46.0563 -68.4700 211° Southwest 399 459 38,000  Level FlightAware ADS-B
02:38PM 46.0170 -68.5040 211° Southwest 399 459 38,000  Level FlightAware
02:39PM 45.9580 -68.5540 211° Southwest 398 458 38,000  Level FlightAware
02:39PM 45.9050 -68.6000 211° Southwest 395 455 38,000  Level FlightAware
02:40PM 45.8460 -68.6500 211° Southwest 398 458 38,000  Level FlightAware
02:41PM 45.7810 -68.7050 211° Southwest 399 459 38,000  Level FlightAware
02:41PM 45.7220 -68.7550 211° Southwest 399 459 38,000  Level FlightAware
02:42PM 45.6740 -68.7960 211° Southwest 398 458 38,000  Level FlightAware
02:42PM 45.6131 -68.8475 211° Southwest 398 458 38,000  Level FlightAware ADS-B
02:43PM 45.5610 -68.8920 211° Southwest 397 457 38,000  Level FlightAware
02:43PM 45.5659 -68.8874 33° Northeast 397 457 38,000  Level FlightAware ADS-B
02:43PM 45.5107 -68.9337 210° Southwest 396 456 38,000  Level FlightAware ADS-B
02:44PM 45.4706 -68.9674 211° Southwest 398 458 38,000  Level FlightAware ADS-B
02:45PM 45.3979 -69.0283 210° Southwest 398 458 38,000  Level FlightAware ADS-B
02:45PM 45.3586 -69.0611 210° Southwest 399 459 38,000  Level FlightAware ADS-B
02:46PM 45.2918 -69.1167 210° Southwest 398 458 38,000  Level FlightAware ADS-B
02:46PM 45.2521 -69.1498 210° Southwest 394 453 38,000  Level FlightAware ADS-B
02:47PM 45.1966 -69.1959 210° Southwest 393 452 38,000  Level FlightAware ADS-B
02:47PM 45.4807 -68.9589 30° Northeast 393 452 38,000  Level FlightAware ADS-B (YSBK / BWU)
02:48PM 45.1651 -69.2220 210° Southwest 396 456 38,000  Level FlightAware ADS-B
02:48PM 45.0666 -69.3035 210° Southwest 396 456 38,000  Level FlightAware ADS-B
02:49PM 45.0236 -69.3389 210° Southwest 397 457 38,000  Level FlightAware ADS-B
02:49PM 44.9698 -69.3831 210° Southwest 397 457 38,000  Level FlightAware ADS-B
02:50PM 44.9621 -69.3895 210° Southwest 397 457 38,000  Level FlightAware ADS-B
02:50PM 44.8632 -69.4706 210° Southwest 398 458 38,000  Level FlightAware ADS-B
02:51PM 44.7774 -69.5407 210° Southwest 400 460 38,000  Level FlightAware ADS-B
02:52PM 44.7287 -69.5803 210° Southwest 399 459 38,000  Level FlightAware ADS-B
02:52PM 44.6645 -69.6325 210° Southwest 397 457 38,000  Level FlightAware ADS-B
02:53PM 44.6128 -69.6744 210° Southwest 396 456 38,000  Level FlightAware ADS-B
02:54PM 44.5526 -69.7231 210° Southwest 397 457 38,000  Level FlightAware ADS-B
02:54PM 44.5058 -69.7610 210° Southwest 398 458 38,000  Level FlightAware ADS-B
02:55PM 44.4557 -69.8013 210° Southwest 398 458 38,000  Level FlightAware ADS-B
02:55PM 44.4070 -69.8404 210° Southwest 399 459 38,000  Level FlightAware ADS-B
02:56PM 44.3525 -69.8842 210° Southwest 403 464 38,000  Level FlightAware ADS-B
02:56PM 44.3026 -69.9242 210° Southwest 403 464 38,000  Level FlightAware ADS-B
02:57PM 44.2490 -69.9670 210° Southwest 403 464 38,000  Level FlightAware
02:57PM 44.2208 -69.9894 210° Southwest 404 465 38,000  Level FlightAware ADS-B
02:58PM 44.1698 -70.0301 210° Southwest 404 465 38,000  Level FlightAware ADS-B
02:58PM 44.0788 -70.0930 206° Southwest 409 471 38,000  Level FlightAware ADS-B
02:59PM 44.0079 -70.1346 203° Southwest 409 471 38,000  Level FlightAware ADS-B
03:00PM 43.9520 -70.1670 203° Southwest 407 468 38,000  Level FlightAware
03:00PM 43.8969 -70.1999 203° Southwest 409 471 38,000  Level FlightAware ADS-B
03:00PM 43.8761 -70.2122 203° Southwest 409 471 38,000  Level FlightAware ADS-B
03:01PM 43.8420 -70.2323 203° Southwest 410 472 38,000  Level FlightAware ADS-B
03:02PM 43.7536 -70.2841 203° Southwest 403 464 38,000  Level FlightAware ADS-B
03:02PM 43.6833 -70.3251 203° Southwest 408 470 38,000  Level FlightAware ADS-B
03:03PM 43.6319 -70.3550 203° Southwest 400 460 38,000  Level FlightAware ADS-B
03:03PM 43.5793 -70.3856 203° Southwest 401 461 38,000  Level FlightAware ADS-B
03:04PM 43.5102 -70.4256 203° Southwest 402 463 38,000  Level FlightAware ADS-B
03:04PM 43.4574 -70.4562 203° Southwest 403 464 38,000  Level FlightAware ADS-B
03:05PM 43.4052 -70.4864 203° Southwest 403 464 38,000  Level FlightAware ADS-B
03:05PM 43.3500 -70.5180 203° Southwest 411 473 38,000  Level FlightAware
03:06PM 43.3350 -70.5269 203° Southwest 404 465 38,000  Level FlightAware ADS-B
03:06PM 43.2825 -70.5573 203° Southwest 407 468 38,000  Level FlightAware ADS-B
03:07PM 43.2290 -70.5881 203° Southwest 415 478 38,000  Level FlightAware ADS-B
03:07PM 43.1777 -70.6174 203° Southwest 414 476 38,000  Level FlightAware ADS-B
03:08PM 43.1232 -70.6485 203° Southwest 406 467 38,000  Level FlightAware ADS-B
03:08PM 43.0676 -70.6804 203° Southwest 413 475 38,000  Level FlightAware ADS-B
03:09PM 43.0158 -70.7102 203° Southwest 406 467 38,000  Level FlightAware ADS-B
03:09PM 43.0107 -70.7134 205° Southwest 411 473 38,000  Level FlightAware ADS-B (KBKF)
03:09PM 42.9492 -70.7579 208° Southwest 403 464 38,000  Level FlightAware ADS-B
03:09PM 42.9328 -70.7701 208° Southwest 412 474 38,000  Level FlightAware ADS-B (KBKF)
03:10PM 42.8719 -70.8140 208° Southwest 413 475 38,000  Level FlightAware ADS-B
03:11PM 42.8150 -70.8542 207° Southwest 414 476 38,000  Level FlightAware ADS-B
03:11PM 42.7814 -70.8777 207° Southwest 414 476 38,000  Level FlightAware ADS-B (SBBR / BSB)
03:12PM 42.6997 -70.9360 208° Southwest 419 482 38,000  Level FlightAware ADS-B (SBBR / BSB)
03:12PM 42.6438 -70.9759 208° Southwest 422 486 38,000  Level FlightAware ADS-B (SBBR / BSB)
03:13PM 42.5733 -71.0259 208° Southwest 417 480 38,000  Level FlightAware ADS-B
03:13PM 42.5157 -71.0666 207° Southwest 423 487 38,000  Level FlightAware ADS-B
03:14PM 42.4625 -71.1041 208° Southwest 422 486 38,000  Level FlightAware ADS-B
03:15PM 42.4127 -71.1392 207° Southwest 423 487 38,000  Level FlightAware ADS-B
03:15PM 42.3622 -71.1749 208° Southwest 422 486 38,000  Level FlightAware ADS-B
03:16PM 42.2963 -71.2210 207° Southwest 419 482 38,000  Level FlightAware ADS-B
03:16PM 42.2452 -71.2568 207° Southwest 420 483 38,000  Level FlightAware ADS-B
03:17PM 42.1939 -71.2927 207° Southwest 420 483 38,000  Level FlightAware ADS-B
03:17PM 42.1415 -71.3293 207° Southwest 421 484 38,000  Level FlightAware ADS-B
03:18PM 42.0900 -71.3652 207° Southwest 420 483 38,000  Level FlightAware ADS-B
03:18PM 42.0386 -71.4010 207° Southwest 419 482 38,000  Level FlightAware ADS-B
03:19PM 41.9877 -71.4362 207° Southwest 417 480 38,000  Level FlightAware ADS-B
03:19PM 41.9358 -71.4721 207° Southwest 416 479 38,000 -300 Level FlightAware ADS-B
03:20PM 41.8844 -71.5077 207° Southwest 417 480 37,700 -787 Descending FlightAware ADS-B
03:20PM 41.8314 -71.5443 207° Southwest 415 478 37,200 -1,377 Descending FlightAware ADS-B
03:21PM 41.7804 -71.5795 207° Southwest 413 475 36,300 -1,692 Descending FlightAware ADS-B
03:21PM 41.7703 -71.5864 207° Southwest 412 474 36,100 -1,655 Descending FlightAware ADS-B (KSNC)
03:21PM 41.7321 -71.6126 207° Southwest 396 456 35,500 -2,280 Descending FlightAware ADS-B
03:22PM 41.6836 -71.6460 207° Southwest 403 464 34,200 -2,739 Descending FlightAware ADS-B
03:22PM 41.6568 -71.6644 207° Southwest 397 457 33,400 -3,214 Descending FlightAware ADS-B
03:22PM 41.6361 -71.6787 207° Southwest 404 465 32,700 -2,842 Descending FlightAware ADS-B (KSNC)
03:22PM 41.6241 -71.6869 207° Southwest 403 464 32,500 -2,684 Descending FlightAware ADS-B
03:23PM 41.5726 -71.7220 207° Southwest 400 460 31,000 -2,687 Descending FlightAware ADS-B (KSNC)
03:23PM 41.5153 -71.7611 207° Southwest 395 455 29,500 -2,471 Descending FlightAware ADS-B (SBBR / BSB)
03:24PM 41.4620 -71.7972 207° Southwest 383 441 28,200 -2,286 Descending FlightAware ADS-B (KBKF)
03:24PM 41.4174 -71.8275 207° Southwest 375 432 27,100 -2,190 Descending FlightAware ADS-B (KBKF)
03:25PM 41.3676 -71.8613 207° Southwest 366 421 25,900 -2,190 Descending FlightAware ADS-B (SBBR / BSB)
03:25PM 41.3208 -71.8929 207° Southwest 358 412 24,800 -1,810 Descending FlightAware ADS-B (KBKF)
03:26PM 41.2764 -71.9279 211° Southwest 356 410 24,000 -943 Descending FlightAware ADS-B (KBKF)
03:27PM 41.2320 -71.9750 219° Southwest 356 410 23,700 -1,629 Descending FlightAware ADS-B (KSNC)
03:27PM 41.1903 -72.0214 220° Southwest 357 411 22,100 -2,400 Descending FlightAware ADS-B (KBKF)
03:27PM 41.2187 -71.9899 40° Northeast 353 406 21,500 -2,200 Descending FlightAware ADS-B (SBBR / BSB)
03:28PM 41.1481 -72.0699 221° Southwest 349 402 21,000 -1,500 Descending FlightAware ADS-B (KBKF)
03:28PM 41.1472 -72.0712 226° Southwest 349 402 20,300 -1,071 Descending FlightAware ADS-B (SBBR / BSB)
03:29PM 41.1011 -72.1492 232° Southwest 340 391 20,000 -2,100 Descending FlightAware ADS-B (SBBR / BSB)
03:29PM 41.1011 -72.1492 232° Southwest 341 392 19,600 -1,440 Descending FlightAware ADS-B (SBBR / BSB)
03:29PM 41.0795 -72.2052 243° Southwest 338 389 19,400 -1,615 Descending FlightAware ADS-B (SBBR / BSB)
03:29PM 41.0642 -72.2634 251° West 333 383 18,200 -2,000 Descending FlightAware ADS-B (KSNC)
03:30PM 41.0480 -72.3300 252° West 323 372 17,300 -2,100 Descending FlightAware
03:30PM 41.0396 -72.3623 251° West 317 365 16,100 -2,211 Descending FlightAware ADS-B (KSNC)
03:31PM 41.0129 -72.4692 252° West 287 330 14,500 -1,857 Descending FlightAware ADS-B (KSNC)
03:32PM 40.9987 -72.5259 252° West 255 293 13,500 -1,247 Descending FlightAware ADS-B (KSNC)
03:33PM 40.9843 -72.5826 251° West 240 276 12,900 -975 Descending FlightAware ADS-B (KSNC)
03:33PM 40.9700 -72.6396 252° West 236 272 12,200 -608 Descending FlightAware ADS-B (KSNC)
03:34PM 40.9565 -72.6932 252° West 239 275 12,100 -86 Descending FlightAware ADS-B (KSNC)
03:34PM 40.9454 -72.7370 252° West 239 275 12,100  Level FlightAware ADS-B (KSNC)
03:35PM 40.9294 -72.7961 250° West 242 278 12,100  Level FlightAware ADS-B (KSNC)
03:35PM 40.9224 -72.8063 228° Southwest 244 281 12,100 -1,067 Level FlightAware ADS-B (KSNC)
03:36PM 40.8894 -72.8377 216° Southwest 250 288 11,300 -1,524 Descending FlightAware ADS-B (KSNC)
03:36PM 40.8589 -72.8670 216° Southwest 253 291 10,500 -1,524 Descending FlightAware ADS-B (KSNC)
03:37PM 40.8319 -72.8929 216° Southwest 256 295 9,700 -1,385 Descending FlightAware ADS-B (KSNC)
03:37PM 40.8095 -72.9143 216° Southwest 254 292 9,300 -837 Descending FlightAware ADS-B (KSNC)
03:38PM 40.7921 -72.9309 216° Southwest 251 289 9,100 -231 Descending FlightAware ADS-B (KSNC)
03:38PM 40.7615 -72.9602 216° Southwest 253 291 9,100  Level FlightAware ADS-B (KSNC)
03:38PM 40.7419 -72.9799 217° Southwest 254 292 9,100 -444 Level FlightAware ADS-B (KSNC)
03:39PM 40.7368 -72.9883 231° Southwest 251 289 8,900 -1,111 Descending FlightAware ADS-B (KSNC)
03:39PM 40.7299 -73.0168 252° West 248 285 8,600 -1,024 Descending FlightAware ADS-B (KSNC)
03:39PM 40.7247 -73.0472 257° West 245 282 8,200 -1,171 Descending FlightAware ADS-B (KSNC)
03:40PM 40.7200 -73.0741 257° West 244 281 7,800 -1,364 Descending FlightAware ADS-B (KSNC)
03:40PM 40.7142 -73.1083 257° West 248 285 7,200 -1,418 Descending FlightAware ADS-B (KSNC)
03:40PM 40.7050 -73.1570 256° West 251 289 6,500 -1,304 Descending FlightAware
03:41PM 40.7010 -73.1800 257° West 247 284 6,200 -1,029 Descending FlightAware
03:41PM 40.6960 -73.2070 256° West 244 281 5,900 -857 Descending FlightAware
03:41PM 40.6920 -73.2190 246° West 243 280 5,800 -375 Descending FlightAware
03:41PM 40.6860 -73.2290 232° Southwest 247 284 5,800 -300 Level FlightAware
03:42PM 40.6770 -73.2400 223° Southwest 249 287 5,700 -529 Descending FlightAware
03:42PM 40.6590 -73.2630 224° Southwest 252 290 5,500 -571 Descending FlightAware
03:42PM 40.6410 -73.2850 223° Southwest 251 289 5,300 -563 Descending FlightAware
03:42PM 40.6310 -73.2960 220° Southwest 250 288 5,200 -400 Descending FlightAware
03:43PM 40.6160 -73.3140 222° Southwest 250 288 5,100 -682 Descending FlightAware
03:43PM 40.5960 -73.3440 229° Southwest 245 282 4,700 -1,050 Descending FlightAware
03:43PM 40.5900 -73.3620 246° West 245 282 4,400 -1,412 Descending FlightAware
03:44PM 40.5790 -73.3920 244° Southwest 246 283 3,900 -1,459 Descending FlightAware
03:44PM 40.5720 -73.4150 248° West 246 283 3,500 -1,200 Descending FlightAware
03:44PM 40.5710 -73.4330 266° West 249 287 3,300 -973 Descending FlightAware
03:45PM 40.5700 -73.4690 268° West 228 262 2,900 -973 Descending FlightAware
03:45PM 40.5700 -73.4850 270° West 217 250 2,700 -581 Descending FlightAware
03:45PM 40.5690 -73.5030 266° West 199 229 2,600 -450 Descending FlightAware
03:46PM 40.5690 -73.5260 270° West 184 212 2,400 -649 Descending FlightAware
03:46PM 40.5680 -73.5460 266° West 179 206 2,200 -529 Descending FlightAware
03:46PM 40.5670 -73.5630 266° West 180 207 2,100 -111 Descending FlightAware
03:47PM 40.5750 -73.6070 283° West 180 207 2,100 125 Level FlightAware
03:47PM 40.5790 -73.6170 298° West 166 191 2,200  Climbing FlightAware
03:47PM 40.5890 -73.6380 302° West 161 185 2,100 -279 Descending FlightAware
03:48PM 40.5960 -73.6550 298° West 160 184 2,000 -450 Descending FlightAware
03:48PM 40.6040 -73.6710 303° West 148 170 1,800 -698 Descending FlightAware
03:48PM 40.6120 -73.6880 302° West 135 155 1,500 -818 Descending FlightAware
03:49PM 40.6180 -73.7020 299° West 131 151 1,200 -811 Descending FlightAware
03:49PM 40.6230 -73.7130 301° West 130 150 1,000 -750 Descending FlightAware
03:49PM 40.6280 -73.7240 301° West 132 152 800 -667 Descending FlightAware
03:50PM 40.6340 -73.7380 299° West 132 152 600 -732 Descending FlightAware
03:50PM 40.6410 -73.7530 302° West 134 154 300 -857 Descending FlightAware
03:50PM 40.6480 -73.7700 298° West 130 150 -783 Descending FlightAware
03:51PM 40.6560 -73.7870 302° West 74 85  Level FlightAware